sensor_id;sensor_type;location;lat;lon;timestamp;P1;durP1;ratioP1;P2;durP2;ratioP2
14203;SDS011;7185;51.854;6.622;2023-02-28T00:00:46;16.25;;;9.68;;
14203;SDS011;7185;51.854;6.622;2023-02-28T00:03:18;17.25;;;9.20;;
14203;SDS011;7185;51.854;6.622;2023-02-28T00:05:49;20.20;;;10.38;;
14203;SDS011;7185;51.854;6.622;2023-02-28T00:08:21;15.18;;;9.48;;
14203;SDS011;7185;51.854;6.622;2023-02-28T00:10:53;18.20;;;10.25;;
14203;SDS011;7185;51.854;6.622;2023-02-28T00:13:26;17.13;;;9.18;;
14203;SDS011;7185;51.854;6.622;2023-02-28T00:16:01;18.60;;;8.80;;
14203;SDS011;7185;51.854;6.622;2023-02-28T00:18:34;17.42;;;9.43;;
14203;SDS011;7185;51.854;6.622;2023-02-28T00:21:05;17.60;;;8.63;;
14203;SDS011;7185;51.854;6.622;2023-02-28T00:23:38;18.92;;;8.68;;
14203;SDS011;7185;51.854;6.622;2023-02-28T00:26:09;14.35;;;8.65;;
14203;SDS011;7185;51.854;6.622;2023-02-28T00:28:42;17.15;;;8.70;;
14203;SDS011;7185;51.854;6.622;2023-02-28T00:31:14;16.08;;;9.02;;
14203;SDS011;7185;51.854;6.622;2023-02-28T00:33:45;16.88;;;8.95;;
14203;SDS011;7185;51.854;6.622;2023-02-28T00:36:17;18.20;;;9.43;;
14203;SDS011;7185;51.854;6.622;2023-02-28T00:38:48;13.88;;;9.20;;
14203;SDS011;7185;51.854;6.622;2023-02-28T00:41:20;17.90;;;9.13;;
14203;SDS011;7185;51.854;6.622;2023-02-28T00:43:53;15.43;;;8.77;;
14203;SDS011;7185;51.854;6.622;2023-02-28T00:46:25;14.05;;;7.90;;
14203;SDS011;7185;51.854;6.622;2023-02-28T00:48:56;16.95;;;9.05;;
14203;SDS011;7185;51.854;6.622;2023-02-28T00:51:28;16.30;;;8.27;;
14203;SDS011;7185;51.854;6.622;2023-02-28T00:53:59;14.68;;;8.68;;
14203;SDS011;7185;51.854;6.622;2023-02-28T00:56:31;15.45;;;8.85;;
14203;SDS011;7185;51.854;6.622;2023-02-28T00:59:04;14.07;;;8.45;;
14203;SDS011;7185;51.854;6.622;2023-02-28T01:01:35;14.73;;;8.43;;
14203;SDS011;7185;51.854;6.622;2023-02-28T01:04:07;16.45;;;8.18;;
14203;SDS011;7185;51.854;6.622;2023-02-28T01:06:39;16.20;;;8.23;;
14203;SDS011;7185;51.854;6.622;2023-02-28T01:09:10;14.63;;;8.20;;
14203;SDS011;7185;51.854;6.622;2023-02-28T01:11:42;14.98;;;7.93;;
14203;SDS011;7185;51.854;6.622;2023-02-28T01:14:16;15.82;;;8.32;;
14203;SDS011;7185;51.854;6.622;2023-02-28T01:16:49;14.07;;;8.30;;
14203;SDS011;7185;51.854;6.622;2023-02-28T01:19:21;15.18;;;7.97;;
14203;SDS011;7185;51.854;6.622;2023-02-28T01:21:53;15.32;;;7.85;;
14203;SDS011;7185;51.854;6.622;2023-02-28T01:24:24;14.77;;;7.50;;
14203;SDS011;7185;51.854;6.622;2023-02-28T01:26:56;13.20;;;7.32;;
14203;SDS011;7185;51.854;6.622;2023-02-28T01:29:29;17.30;;;7.13;;
14203;SDS011;7185;51.854;6.622;2023-02-28T01:32:00;15.88;;;6.78;;
14203;SDS011;7185;51.854;6.622;2023-02-28T01:34:32;9.50;;;5.82;;
14203;SDS011;7185;51.854;6.622;2023-02-28T01:37:03;10.45;;;5.15;;
14203;SDS011;7185;51.854;6.622;2023-02-28T01:39:35;10.10;;;5.82;;
14203;SDS011;7185;51.854;6.622;2023-02-28T01:42:08;13.70;;;5.63;;
14203;SDS011;7185;51.854;6.622;2023-02-28T01:47:35;10.10;;;5.20;;
14203;SDS011;7185;51.854;6.622;2023-02-28T01:50:11;8.73;;;5.03;;
14203;SDS011;7185;51.854;6.622;2023-02-28T01:52:46;11.23;;;5.30;;
14203;SDS011;7185;51.854;6.622;2023-02-28T01:55:19;10.30;;;5.22;;
14203;SDS011;7185;51.854;6.622;2023-02-28T01:57:54;9.32;;;5.13;;
14203;SDS011;7185;51.854;6.622;2023-02-28T02:00:29;9.70;;;5.38;;
14203;SDS011;7185;51.854;6.622;2023-02-28T02:03:04;8.48;;;4.90;;
14203;SDS011;7185;51.854;6.622;2023-02-28T02:05:39;11.60;;;4.95;;
14203;SDS011;7185;51.854;6.622;2023-02-28T02:08:19;11.13;;;5.10;;
14203;SDS011;7185;51.854;6.622;2023-02-28T02:10:54;9.85;;;4.57;;
14203;SDS011;7185;51.854;6.622;2023-02-28T02:13:30;10.82;;;4.88;;
14203;SDS011;7185;51.854;6.622;2023-02-28T02:16:31;10.32;;;4.57;;
14203;SDS011;7185;51.854;6.622;2023-02-28T02:19:15;9.50;;;4.55;;
14203;SDS011;7185;51.854;6.622;2023-02-28T02:25:26;11.63;;;4.63;;
14203;SDS011;7185;51.854;6.622;2023-02-28T02:28:06;9.35;;;5.32;;
14203;SDS011;7185;51.854;6.622;2023-02-28T02:31:04;12.80;;;4.55;;
14203;SDS011;7185;51.854;6.622;2023-02-28T02:34:10;9.75;;;4.97;;
14203;SDS011;7185;51.854;6.622;2023-02-28T02:37:06;9.48;;;5.18;;
14203;SDS011;7185;51.854;6.622;2023-02-28T02:39:47;10.90;;;5.05;;
14203;SDS011;7185;51.854;6.622;2023-02-28T02:42:24;8.27;;;5.28;;
14203;SDS011;7185;51.854;6.622;2023-02-28T02:45:01;9.23;;;5.18;;
14203;SDS011;7185;51.854;6.622;2023-02-28T02:47:37;12.27;;;5.32;;
14203;SDS011;7185;51.854;6.622;2023-02-28T02:50:13;9.57;;;5.25;;
14203;SDS011;7185;51.854;6.622;2023-02-28T02:52:51;8.45;;;5.60;;
14203;SDS011;7185;51.854;6.622;2023-02-28T02:55:27;13.05;;;5.55;;
14203;SDS011;7185;51.854;6.622;2023-02-28T02:58:01;11.50;;;5.82;;
14203;SDS011;7185;51.854;6.622;2023-02-28T03:00:39;8.98;;;5.40;;
14203;SDS011;7185;51.854;6.622;2023-02-28T03:03:14;10.45;;;5.53;;
14203;SDS011;7185;51.854;6.622;2023-02-28T03:05:52;8.37;;;5.30;;
14203;SDS011;7185;51.854;6.622;2023-02-28T03:08:23;8.10;;;5.03;;
14203;SDS011;7185;51.854;6.622;2023-02-28T03:10:56;10.35;;;4.90;;
14203;SDS011;7185;51.854;6.622;2023-02-28T03:16:32;10.18;;;5.93;;
14203;SDS011;7185;51.854;6.622;2023-02-28T03:19:17;9.18;;;5.07;;
14203;SDS011;7185;51.854;6.622;2023-02-28T03:22:06;9.00;;;5.32;;
14203;SDS011;7185;51.854;6.622;2023-02-28T03:24:46;9.77;;;5.03;;
14203;SDS011;7185;51.854;6.622;2023-02-28T03:27:23;12.43;;;5.05;;
14203;SDS011;7185;51.854;6.622;2023-02-28T03:29:59;9.82;;;4.97;;
14203;SDS011;7185;51.854;6.622;2023-02-28T03:32:35;9.95;;;5.60;;
14203;SDS011;7185;51.854;6.622;2023-02-28T03:35:11;9.00;;;5.82;;
14203;SDS011;7185;51.854;6.622;2023-02-28T03:37:53;10.32;;;5.10;;
14203;SDS011;7185;51.854;6.622;2023-02-28T03:40:32;14.63;;;5.45;;
14203;SDS011;7185;51.854;6.622;2023-02-28T03:43:07;12.23;;;6.07;;
14203;SDS011;7185;51.854;6.622;2023-02-28T03:45:43;8.57;;;5.15;;
14203;SDS011;7185;51.854;6.622;2023-02-28T03:48:18;11.23;;;5.60;;
14203;SDS011;7185;51.854;6.622;2023-02-28T03:50:53;8.90;;;5.13;;
14203;SDS011;7185;51.854;6.622;2023-02-28T03:53:29;11.20;;;6.03;;
14203;SDS011;7185;51.854;6.622;2023-02-28T03:56:05;13.02;;;5.22;;
14203;SDS011;7185;51.854;6.622;2023-02-28T03:58:44;8.15;;;5.55;;
14203;SDS011;7185;51.854;6.622;2023-02-28T04:01:20;11.80;;;5.43;;
14203;SDS011;7185;51.854;6.622;2023-02-28T04:03:56;10.10;;;5.22;;
14203;SDS011;7185;51.854;6.622;2023-02-28T04:06:27;10.65;;;5.70;;
14203;SDS011;7185;51.854;6.622;2023-02-28T04:09:04;11.38;;;6.13;;
14203;SDS011;7185;51.854;6.622;2023-02-28T04:11:38;9.27;;;6.03;;
14203;SDS011;7185;51.854;6.622;2023-02-28T04:14:12;9.75;;;6.00;;
14203;SDS011;7185;51.854;6.622;2023-02-28T04:16:43;10.55;;;6.20;;
14203;SDS011;7185;51.854;6.622;2023-02-28T04:19:16;12.60;;;7.00;;
14203;SDS011;7185;51.854;6.622;2023-02-28T04:21:48;11.93;;;6.32;;
14203;SDS011;7185;51.854;6.622;2023-02-28T04:24:23;10.52;;;6.10;;
14203;SDS011;7185;51.854;6.622;2023-02-28T04:26:56;9.50;;;6.43;;
14203;SDS011;7185;51.854;6.622;2023-02-28T04:29:30;8.45;;;5.55;;
14203;SDS011;7185;51.854;6.622;2023-02-28T04:32:03;9.20;;;5.60;;
14203;SDS011;7185;51.854;6.622;2023-02-28T04:34:35;11.88;;;5.72;;
14203;SDS011;7185;51.854;6.622;2023-02-28T04:37:07;10.07;;;5.65;;
14203;SDS011;7185;51.854;6.622;2023-02-28T04:39:40;10.82;;;6.18;;
14203;SDS011;7185;51.854;6.622;2023-02-28T04:42:12;10.63;;;5.70;;
14203;SDS011;7185;51.854;6.622;2023-02-28T04:44:44;8.98;;;5.25;;
14203;SDS011;7185;51.854;6.622;2023-02-28T04:47:17;8.98;;;5.65;;
14203;SDS011;7185;51.854;6.622;2023-02-28T04:49:48;11.13;;;5.75;;
14203;SDS011;7185;51.854;6.622;2023-02-28T04:52:20;9.65;;;5.60;;
14203;SDS011;7185;51.854;6.622;2023-02-28T04:54:53;8.90;;;4.82;;
14203;SDS011;7185;51.854;6.622;2023-02-28T04:57:25;9.77;;;5.50;;
14203;SDS011;7185;51.854;6.622;2023-02-28T04:59:56;10.52;;;5.00;;
14203;SDS011;7185;51.854;6.622;2023-02-28T05:02:28;10.20;;;5.78;;
14203;SDS011;7185;51.854;6.622;2023-02-28T05:04:59;9.18;;;5.55;;
14203;SDS011;7185;51.854;6.622;2023-02-28T05:07:31;9.98;;;5.00;;
14203;SDS011;7185;51.854;6.622;2023-02-28T05:10:04;11.00;;;4.80;;
14203;SDS011;7185;51.854;6.622;2023-02-28T05:12:36;11.38;;;5.68;;
14203;SDS011;7185;51.854;6.622;2023-02-28T05:15:09;9.65;;;5.15;;
14203;SDS011;7185;51.854;6.622;2023-02-28T05:17:44;13.02;;;6.10;;
14203;SDS011;7185;51.854;6.622;2023-02-28T05:20:15;9.07;;;5.32;;
14203;SDS011;7185;51.854;6.622;2023-02-28T05:22:49;9.13;;;5.07;;
14203;SDS011;7185;51.854;6.622;2023-02-28T05:25:22;9.60;;;5.07;;
14203;SDS011;7185;51.854;6.622;2023-02-28T05:27:53;10.38;;;5.75;;
14203;SDS011;7185;51.854;6.622;2023-02-28T05:30:25;10.07;;;5.90;;
14203;SDS011;7185;51.854;6.622;2023-02-28T05:32:57;10.93;;;5.15;;
14203;SDS011;7185;51.854;6.622;2023-02-28T05:35:29;12.05;;;5.05;;
14203;SDS011;7185;51.854;6.622;2023-02-28T05:38:01;9.35;;;5.72;;
14203;SDS011;7185;51.854;6.622;2023-02-28T05:40:34;12.40;;;5.70;;
14203;SDS011;7185;51.854;6.622;2023-02-28T05:43:07;7.85;;;5.25;;
14203;SDS011;7185;51.854;6.622;2023-02-28T05:45:41;10.18;;;5.88;;
14203;SDS011;7185;51.854;6.622;2023-02-28T05:48:13;9.35;;;5.72;;
14203;SDS011;7185;51.854;6.622;2023-02-28T05:50:50;9.13;;;5.38;;
14203;SDS011;7185;51.854;6.622;2023-02-28T05:53:22;9.55;;;5.93;;
14203;SDS011;7185;51.854;6.622;2023-02-28T05:55:55;10.40;;;5.28;;
14203;SDS011;7185;51.854;6.622;2023-02-28T05:58:27;10.57;;;5.53;;
14203;SDS011;7185;51.854;6.622;2023-02-28T06:01:18;9.10;;;5.60;;
14203;SDS011;7185;51.854;6.622;2023-02-28T06:03:51;7.25;;;4.75;;
14203;SDS011;7185;51.854;6.622;2023-02-28T06:06:22;9.82;;;5.80;;
14203;SDS011;7185;51.854;6.622;2023-02-28T06:08:54;8.48;;;5.53;;
14203;SDS011;7185;51.854;6.622;2023-02-28T06:11:27;9.48;;;6.05;;
14203;SDS011;7185;51.854;6.622;2023-02-28T06:13:59;10.80;;;5.85;;
14203;SDS011;7185;51.854;6.622;2023-02-28T06:16:32;11.35;;;5.55;;
14203;SDS011;7185;51.854;6.622;2023-02-28T06:19:05;10.20;;;5.63;;
14203;SDS011;7185;51.854;6.622;2023-02-28T06:21:37;10.73;;;5.75;;
14203;SDS011;7185;51.854;6.622;2023-02-28T06:24:08;10.65;;;5.80;;
14203;SDS011;7185;51.854;6.622;2023-02-28T06:26:42;10.18;;;5.78;;
14203;SDS011;7185;51.854;6.622;2023-02-28T06:29:13;9.55;;;5.82;;
14203;SDS011;7185;51.854;6.622;2023-02-28T06:31:47;10.50;;;5.40;;
14203;SDS011;7185;51.854;6.622;2023-02-28T06:34:18;9.15;;;6.18;;
14203;SDS011;7185;51.854;6.622;2023-02-28T06:36:51;11.70;;;6.47;;
14203;SDS011;7185;51.854;6.622;2023-02-28T06:39:23;11.57;;;5.47;;
14203;SDS011;7185;51.854;6.622;2023-02-28T06:41:56;11.93;;;6.05;;
14203;SDS011;7185;51.854;6.622;2023-02-28T06:44:27;9.23;;;5.30;;
14203;SDS011;7185;51.854;6.622;2023-02-28T06:47:05;11.43;;;5.75;;
14203;SDS011;7185;51.854;6.622;2023-02-28T06:49:37;8.38;;;5.47;;
14203;SDS011;7185;51.854;6.622;2023-02-28T06:52:09;8.30;;;5.10;;
14203;SDS011;7185;51.854;6.622;2023-02-28T06:54:40;11.27;;;6.43;;
14203;SDS011;7185;51.854;6.622;2023-02-28T06:57:13;9.98;;;6.00;;
14203;SDS011;7185;51.854;6.622;2023-02-28T06:59:45;11.93;;;5.50;;
14203;SDS011;7185;51.854;6.622;2023-02-28T07:02:16;10.40;;;5.90;;
14203;SDS011;7185;51.854;6.622;2023-02-28T07:04:48;11.52;;;6.10;;
14203;SDS011;7185;51.854;6.622;2023-02-28T07:07:20;9.45;;;5.68;;
14203;SDS011;7185;51.854;6.622;2023-02-28T07:09:51;9.57;;;5.47;;
14203;SDS011;7185;51.854;6.622;2023-02-28T07:12:24;9.60;;;6.13;;
14203;SDS011;7185;51.854;6.622;2023-02-28T07:14:56;9.32;;;5.60;;
14203;SDS011;7185;51.854;6.622;2023-02-28T07:17:27;10.13;;;5.28;;
14203;SDS011;7185;51.854;6.622;2023-02-28T07:19:59;8.00;;;5.47;;
14203;SDS011;7185;51.854;6.622;2023-02-28T07:22:30;7.97;;;5.03;;
14203;SDS011;7185;51.854;6.622;2023-02-28T07:25:02;8.98;;;4.80;;
14203;SDS011;7185;51.854;6.622;2023-02-28T07:27:35;9.32;;;5.28;;
14203;SDS011;7185;51.854;6.622;2023-02-28T07:30:07;9.93;;;5.18;;
14203;SDS011;7185;51.854;6.622;2023-02-28T07:32:40;7.90;;;4.85;;
14203;SDS011;7185;51.854;6.622;2023-02-28T07:35:11;9.60;;;4.72;;
14203;SDS011;7185;51.854;6.622;2023-02-28T07:37:45;8.07;;;4.40;;
14203;SDS011;7185;51.854;6.622;2023-02-28T07:40:17;8.15;;;4.35;;
14203;SDS011;7185;51.854;6.622;2023-02-28T07:42:50;8.27;;;3.97;;
14203;SDS011;7185;51.854;6.622;2023-02-28T07:45:22;6.63;;;4.10;;
14203;SDS011;7185;51.854;6.622;2023-02-28T07:47:53;9.02;;;4.13;;
14203;SDS011;7185;51.854;6.622;2023-02-28T07:50:25;8.07;;;4.05;;
14203;SDS011;7185;51.854;6.622;2023-02-28T07:52:59;8.00;;;4.00;;
14203;SDS011;7185;51.854;6.622;2023-02-28T07:55:30;8.60;;;4.32;;
14203;SDS011;7185;51.854;6.622;2023-02-28T07:58:03;7.55;;;4.05;;
14203;SDS011;7185;51.854;6.622;2023-02-28T08:00:35;5.75;;;3.35;;
14203;SDS011;7185;51.854;6.622;2023-02-28T08:03:07;8.68;;;4.03;;
14203;SDS011;7185;51.854;6.622;2023-02-28T08:05:41;5.53;;;3.30;;
14203;SDS011;7185;51.854;6.622;2023-02-28T08:08:13;7.40;;;3.05;;
14203;SDS011;7185;51.854;6.622;2023-02-28T08:10:45;5.88;;;3.13;;
14203;SDS011;7185;51.854;6.622;2023-02-28T08:13:18;4.68;;;2.97;;
14203;SDS011;7185;51.854;6.622;2023-02-28T08:15:50;4.45;;;2.53;;
14203;SDS011;7185;51.854;6.622;2023-02-28T08:18:22;5.13;;;2.92;;
14203;SDS011;7185;51.854;6.622;2023-02-28T08:20:54;4.47;;;2.53;;
14203;SDS011;7185;51.854;6.622;2023-02-28T08:23:26;4.82;;;2.50;;
14203;SDS011;7185;51.854;6.622;2023-02-28T08:25:58;3.72;;;2.17;;
14203;SDS011;7185;51.854;6.622;2023-02-28T08:28:31;2.90;;;2.08;;
14203;SDS011;7185;51.854;6.622;2023-02-28T08:31:08;4.22;;;2.08;;
14203;SDS011;7185;51.854;6.622;2023-02-28T08:33:40;3.15;;;1.80;;
14203;SDS011;7185;51.854;6.622;2023-02-28T08:36:14;3.15;;;2.03;;
14203;SDS011;7185;51.854;6.622;2023-02-28T08:38:46;4.70;;;2.25;;
14203;SDS011;7185;51.854;6.622;2023-02-28T08:41:17;2.90;;;2.05;;
14203;SDS011;7185;51.854;6.622;2023-02-28T08:43:50;3.38;;;2.00;;
14203;SDS011;7185;51.854;6.622;2023-02-28T08:46:23;4.03;;;2.00;;
14203;SDS011;7185;51.854;6.622;2023-02-28T08:48:55;3.88;;;2.20;;
14203;SDS011;7185;51.854;6.622;2023-02-28T08:51:30;4.25;;;1.90;;
14203;SDS011;7185;51.854;6.622;2023-02-28T08:54:02;4.25;;;2.17;;
14203;SDS011;7185;51.854;6.622;2023-02-28T08:56:34;2.90;;;2.00;;
14203;SDS011;7185;51.854;6.622;2023-02-28T08:59:08;5.70;;;2.15;;
14203;SDS011;7185;51.854;6.622;2023-02-28T09:01:40;3.75;;;1.83;;
14203;SDS011;7185;51.854;6.622;2023-02-28T09:04:13;4.05;;;2.17;;
14203;SDS011;7185;51.854;6.622;2023-02-28T09:06:46;4.63;;;2.20;;
14203;SDS011;7185;51.854;6.622;2023-02-28T09:09:18;2.97;;;1.90;;
14203;SDS011;7185;51.854;6.622;2023-02-28T09:11:50;5.05;;;1.92;;
14203;SDS011;7185;51.854;6.622;2023-02-28T09:14:23;6.20;;;2.20;;
14203;SDS011;7185;51.854;6.622;2023-02-28T09:16:54;3.20;;;1.92;;
14203;SDS011;7185;51.854;6.622;2023-02-28T09:19:26;6.18;;;1.98;;
14203;SDS011;7185;51.854;6.622;2023-02-28T09:21:58;4.75;;;1.90;;
14203;SDS011;7185;51.854;6.622;2023-02-28T09:24:29;2.90;;;1.88;;
14203;SDS011;7185;51.854;6.622;2023-02-28T09:30:29;2.72;;;1.90;;
14203;SDS011;7185;51.854;6.622;2023-02-28T09:33:02;3.22;;;1.95;;
14203;SDS011;7185;51.854;6.622;2023-02-28T09:35:34;3.72;;;1.98;;
14203;SDS011;7185;51.854;6.622;2023-02-28T09:38:07;3.00;;;1.63;;
14203;SDS011;7185;51.854;6.622;2023-02-28T09:40:39;2.45;;;1.77;;
14203;SDS011;7185;51.854;6.622;2023-02-28T09:43:19;3.45;;;1.98;;
14203;SDS011;7185;51.854;6.622;2023-02-28T09:45:56;3.25;;;1.95;;
14203;SDS011;7185;51.854;6.622;2023-02-28T09:48:34;4.30;;;1.90;;
14203;SDS011;7185;51.854;6.622;2023-02-28T09:51:14;2.60;;;1.70;;
14203;SDS011;7185;51.854;6.622;2023-02-28T09:53:57;2.78;;;1.65;;
14203;SDS011;7185;51.854;6.622;2023-02-28T09:56:32;3.75;;;2.03;;
14203;SDS011;7185;51.854;6.622;2023-02-28T09:59:10;2.40;;;1.58;;
14203;SDS011;7185;51.854;6.622;2023-02-28T10:01:53;2.38;;;1.52;;
14203;SDS011;7185;51.854;6.622;2023-02-28T10:04:35;2.70;;;1.90;;
14203;SDS011;7185;51.854;6.622;2023-02-28T10:07:17;3.35;;;2.13;;
14203;SDS011;7185;51.854;6.622;2023-02-28T10:09:57;2.97;;;1.85;;
14203;SDS011;7185;51.854;6.622;2023-02-28T10:12:33;4.55;;;1.85;;
14203;SDS011;7185;51.854;6.622;2023-02-28T10:15:09;2.97;;;1.90;;
14203;SDS011;7185;51.854;6.622;2023-02-28T10:17:47;3.90;;;1.85;;
14203;SDS011;7185;51.854;6.622;2023-02-28T10:20:40;4.03;;;1.60;;
14203;SDS011;7185;51.854;6.622;2023-02-28T10:23:26;2.95;;;1.70;;
14203;SDS011;7185;51.854;6.622;2023-02-28T10:26:05;2.88;;;1.60;;
14203;SDS011;7185;51.854;6.622;2023-02-28T10:28:43;2.05;;;1.48;;
14203;SDS011;7185;51.854;6.622;2023-02-28T10:31:16;2.80;;;1.67;;
14203;SDS011;7185;51.854;6.622;2023-02-28T10:33:51;3.35;;;1.83;;
14203;SDS011;7185;51.854;6.622;2023-02-28T10:36:22;3.28;;;1.92;;
14203;SDS011;7185;51.854;6.622;2023-02-28T10:38:54;2.78;;;1.38;;
14203;SDS011;7185;51.854;6.622;2023-02-28T10:41:27;2.90;;;1.65;;
14203;SDS011;7185;51.854;6.622;2023-02-28T10:44:13;3.80;;;1.80;;
14203;SDS011;7185;51.854;6.622;2023-02-28T10:46:49;3.45;;;1.70;;
14203;SDS011;7185;51.854;6.622;2023-02-28T10:49:24;2.30;;;1.65;;
14203;SDS011;7185;51.854;6.622;2023-02-28T10:51:59;2.80;;;1.50;;
14203;SDS011;7185;51.854;6.622;2023-02-28T10:54:33;3.42;;;1.65;;
14203;SDS011;7185;51.854;6.622;2023-02-28T10:57:11;2.28;;;1.58;;
14203;SDS011;7185;51.854;6.622;2023-02-28T10:59:50;3.30;;;1.65;;
14203;SDS011;7185;51.854;6.622;2023-02-28T11:02:29;4.78;;;1.70;;
14203;SDS011;7185;51.854;6.622;2023-02-28T11:07:59;3.63;;;1.90;;
14203;SDS011;7185;51.854;6.622;2023-02-28T11:10:37;3.63;;;1.70;;
14203;SDS011;7185;51.854;6.622;2023-02-28T11:13:13;3.92;;;2.03;;
14203;SDS011;7185;51.854;6.622;2023-02-28T11:15:50;2.90;;;1.50;;
14203;SDS011;7185;51.854;6.622;2023-02-28T11:18:24;2.50;;;1.30;;
14203;SDS011;7185;51.854;6.622;2023-02-28T11:21:01;3.13;;;1.40;;
14203;SDS011;7185;51.854;6.622;2023-02-28T11:23:34;2.22;;;1.40;;
14203;SDS011;7185;51.854;6.622;2023-02-28T11:26:08;2.70;;;1.45;;
14203;SDS011;7185;51.854;6.622;2023-02-28T11:28:41;3.03;;;1.50;;
14203;SDS011;7185;51.854;6.622;2023-02-28T11:31:17;4.13;;;1.50;;
14203;SDS011;7185;51.854;6.622;2023-02-28T11:33:52;3.80;;;1.70;;
14203;SDS011;7185;51.854;6.622;2023-02-28T11:36:28;3.55;;;2.03;;
14203;SDS011;7185;51.854;6.622;2023-02-28T11:39:04;3.40;;;1.90;;
14203;SDS011;7185;51.854;6.622;2023-02-28T11:41:50;3.70;;;2.10;;
14203;SDS011;7185;51.854;6.622;2023-02-28T11:44:39;4.10;;;2.20;;
14203;SDS011;7185;51.854;6.622;2023-02-28T11:47:24;4.57;;;2.05;;
14203;SDS011;7185;51.854;6.622;2023-02-28T11:50:08;6.10;;;2.40;;
14203;SDS011;7185;51.854;6.622;2023-02-28T11:52:50;5.57;;;2.45;;
14203;SDS011;7185;51.854;6.622;2023-02-28T11:55:25;4.57;;;2.60;;
14203;SDS011;7185;51.854;6.622;2023-02-28T11:58:05;5.40;;;2.13;;
14203;SDS011;7185;51.854;6.622;2023-02-28T12:03:43;3.97;;;2.10;;
14203;SDS011;7185;51.854;6.622;2023-02-28T12:06:21;3.72;;;1.77;;
14203;SDS011;7185;51.854;6.622;2023-02-28T12:09:02;2.75;;;1.60;;
14203;SDS011;7185;51.854;6.622;2023-02-28T12:11:47;4.03;;;1.80;;
14203;SDS011;7185;51.854;6.622;2023-02-28T12:14:44;3.05;;;1.60;;
14203;SDS011;7185;51.854;6.622;2023-02-28T12:17:33;3.15;;;1.80;;
14203;SDS011;7185;51.854;6.622;2023-02-28T12:20:17;3.05;;;1.70;;
14203;SDS011;7185;51.854;6.622;2023-02-28T12:22:57;2.20;;;1.50;;
14203;SDS011;7185;51.854;6.622;2023-02-28T12:25:50;2.30;;;1.38;;
14203;SDS011;7185;51.854;6.622;2023-02-28T12:28:32;2.10;;;1.40;;
14203;SDS011;7185;51.854;6.622;2023-02-28T12:31:09;2.85;;;1.80;;
14203;SDS011;7185;51.854;6.622;2023-02-28T12:33:46;3.63;;;1.83;;
